createdAt,value
2018-11-26T00:00:01.584Z,19.10
2018-11-26T00:01:01.570Z,19.30
2018-11-26T00:02:01.560Z,19.40
2018-11-26T00:03:01.544Z,19.80
2018-11-26T00:04:01.540Z,19.50
2018-11-26T00:05:01.523Z,19.30
2018-11-26T00:06:01.516Z,20.10
2018-11-26T00:07:01.509Z,20.30
2018-11-26T00:08:01.505Z,19.70
2018-11-26T00:09:01.484Z,20.50
2018-11-26T00:10:01.473Z,20.50
2018-11-26T00:11:01.459Z,18.70
2018-11-26T00:12:01.448Z,19.20
2018-11-26T00:13:01.436Z,19.70
2018-11-26T00:14:01.428Z,20.00
2018-11-26T00:15:01.424Z,20.40
2018-11-26T00:16:01.411Z,19.10
2018-11-26T00:17:01.395Z,18.80
2018-11-26T00:18:01.383Z,20.20
2018-11-26T00:19:01.376Z,19.30
2018-11-26T00:20:01.378Z,19.30
2018-11-26T00:21:01.355Z,20.50
2018-11-26T00:22:01.344Z,19.00
2018-11-26T00:23:01.329Z,18.30
2018-11-26T00:24:01.319Z,19.30
2018-11-26T00:25:01.308Z,18.70
2018-11-26T00:26:01.297Z,18.60
2018-11-26T00:27:01.290Z,19.10
2018-11-26T00:28:01.280Z,18.70
2018-11-26T00:29:01.269Z,19.90
2018-11-26T00:30:01.260Z,19.00
2018-11-26T00:31:01.242Z,18.60
2018-11-26T00:32:01.234Z,19.10
2018-11-26T00:33:01.227Z,19.10
2018-11-26T00:34:01.214Z,17.70
2018-11-26T00:35:01.201Z,18.90
2018-11-26T00:36:01.190Z,18.30
2018-11-26T00:37:01.179Z,17.90
2018-11-26T00:38:01.168Z,18.20
2018-11-26T00:39:01.162Z,17.70
2018-11-26T00:40:01.150Z,17.70
2018-11-26T00:41:01.140Z,17.70
2018-11-26T00:42:01.129Z,17.80
2018-11-26T00:43:01.115Z,17.40
2018-11-26T00:44:01.103Z,17.40
2018-11-26T00:45:01.092Z,17.50
2018-11-26T00:46:01.081Z,17.20
2018-11-26T00:47:01.076Z,16.90
2018-11-26T00:48:01.068Z,17.70
2018-11-26T00:49:01.049Z,16.70
2018-11-26T00:50:01.039Z,17.20
2018-11-26T00:51:01.034Z,16.90
2018-11-26T00:52:01.023Z,18.40
2018-11-26T00:53:01.011Z,16.60
2018-11-26T00:54:01.001Z,16.50
2018-11-26T00:55:00.985Z,16.80
2018-11-26T00:56:00.975Z,17.70
2018-11-26T00:57:00.963Z,16.70
2018-11-26T00:58:00.953Z,16.30
2018-11-26T00:59:00.949Z,16.60
2018-11-26T01:00:00.944Z,16.10
2018-11-26T01:01:00.926Z,17.50
2018-11-26T01:02:00.916Z,16.80
2018-11-26T01:03:00.904Z,17.60
2018-11-26T01:04:00.891Z,17.10
2018-11-26T01:05:00.884Z,16.70
2018-11-26T01:06:00.877Z,15.90
2018-11-26T01:07:00.859Z,17.30
2018-11-26T01:08:00.849Z,16.90
2018-11-26T01:09:00.840Z,16.30
2018-11-26T01:10:00.825Z,16.20
2018-11-26T01:11:00.820Z,16.70
2018-11-26T01:12:00.809Z,16.60
2018-11-26T01:13:00.797Z,16.40
2018-11-26T01:14:00.787Z,16.40
2018-11-26T01:15:00.773Z,16.60
2018-11-26T01:16:00.768Z,15.90
2018-11-26T01:17:00.750Z,16.90
2018-11-26T01:18:00.741Z,16.70
2018-11-26T01:19:00.738Z,16.50
2018-11-26T01:20:00.725Z,16.90
2018-11-26T01:21:00.707Z,16.90
2018-11-26T01:22:00.698Z,17.30
2018-11-26T01:23:00.692Z,17.10
2018-11-26T01:24:00.686Z,16.10
2018-11-26T01:25:00.670Z,16.80
2018-11-26T01:26:00.660Z,17.10
2018-11-26T01:27:00.694Z,16.30
2018-11-26T01:28:00.634Z,16.60
2018-11-26T01:29:00.625Z,17.00
2018-11-26T01:30:00.615Z,17.00
2018-11-26T01:31:00.609Z,16.10
2018-11-26T01:32:00.597Z,17.10
2018-11-26T01:33:00.591Z,16.40
2018-11-26T01:34:00.575Z,16.00
2018-11-26T01:35:00.583Z,16.00
2018-11-26T01:36:00.549Z,17.00
2018-11-26T01:37:00.544Z,15.70
2018-11-26T01:38:00.533Z,16.70
2018-11-26T01:39:00.517Z,16.60
2018-11-26T01:40:00.511Z,16.20
2018-11-26T01:41:00.498Z,16.50
2018-11-26T01:42:00.486Z,15.90
2018-11-26T01:43:00.479Z,16.00
2018-11-26T01:44:00.469Z,15.90
2018-11-26T01:45:00.458Z,16.10
2018-11-26T01:46:00.458Z,16.40
2018-11-26T01:47:00.433Z,16.60
2018-11-26T01:48:00.421Z,16.60
2018-11-26T01:49:00.411Z,16.40
2018-11-26T01:50:00.401Z,15.80
2018-11-26T01:51:00.395Z,16.30
2018-11-26T01:52:00.384Z,16.50
2018-11-26T01:53:00.368Z,16.40
2018-11-26T01:54:00.362Z,15.70
2018-11-26T01:55:00.352Z,16.80
2018-11-26T01:56:00.345Z,16.10
2018-11-26T01:57:00.331Z,16.30
2018-11-26T01:58:00.320Z,15.80
2018-11-26T01:59:00.307Z,15.20
2018-11-26T02:00:00.351Z,16.40
2018-11-26T02:01:00.284Z,15.10
2018-11-26T02:02:00.274Z,15.50
2018-11-26T02:03:00.272Z,16.40
2018-11-26T02:04:00.262Z,16.40
2018-11-26T02:05:00.253Z,16.70
2018-11-26T02:06:00.238Z,16.00
2018-11-26T02:07:00.220Z,16.40
2018-11-26T02:08:00.213Z,16.30
2018-11-26T02:09:00.204Z,16.90
2018-11-26T02:10:00.198Z,16.40
2018-11-26T02:11:00.179Z,17.50
2018-11-26T02:12:00.167Z,17.00
2018-11-26T02:13:00.161Z,16.40
2018-11-26T02:14:00.148Z,16.00
2018-11-26T02:15:00.151Z,16.70
2018-11-26T02:16:00.134Z,16.40
2018-11-26T02:17:00.128Z,16.50
2018-11-26T02:18:00.110Z,16.80
2018-11-26T02:19:00.094Z,16.10
2018-11-26T02:20:00.098Z,16.10
2018-11-26T02:21:00.084Z,16.80
2018-11-26T02:22:00.063Z,16.80
2018-11-26T02:23:00.061Z,17.70
2018-11-26T02:24:00.051Z,16.90
2018-11-26T02:25:00.044Z,17.20
2018-11-26T02:26:00.038Z,16.70
2018-11-26T02:27:00.025Z,16.80
2018-11-26T02:28:00.007Z,17.10
2018-11-26T02:28:59.993Z,16.80
2018-11-26T02:29:59.983Z,17.40
2018-11-26T02:30:59.971Z,16.60
2018-11-26T02:31:59.957Z,16.00
2018-11-26T02:32:59.950Z,16.70
2018-11-26T02:33:59.936Z,16.00
2018-11-26T02:34:59.936Z,16.10
2018-11-26T02:35:59.920Z,17.20
2018-11-26T02:36:59.913Z,16.70
2018-11-26T02:37:59.896Z,16.90
2018-11-26T02:38:59.883Z,16.50
2018-11-26T02:39:59.871Z,16.50
2018-11-26T02:40:59.865Z,16.80
2018-11-26T02:41:59.858Z,17.50
2018-11-26T02:42:59.841Z,16.90
2018-11-26T02:43:59.830Z,17.10
2018-11-26T02:44:59.823Z,17.00
2018-11-26T02:45:59.809Z,15.80
2018-11-26T02:46:59.803Z,16.20
2018-11-26T02:47:59.805Z,17.50
2018-11-26T02:48:59.781Z,16.50
2018-11-26T02:49:59.768Z,16.60
2018-11-26T02:50:59.761Z,17.50
2018-11-26T02:51:59.755Z,17.20
2018-11-26T02:52:59.740Z,16.30
2018-11-26T02:53:59.732Z,16.90
2018-11-26T02:54:59.715Z,17.10
2018-11-26T02:55:59.706Z,16.00
2018-11-26T02:56:59.697Z,17.10
2018-11-26T02:57:59.689Z,17.70
2018-11-26T02:58:59.673Z,16.90
2018-11-26T02:59:59.665Z,17.00
2018-11-26T03:00:59.652Z,16.80
2018-11-26T03:01:59.643Z,16.40
2018-11-26T03:02:59.637Z,16.80
2018-11-26T03:03:59.626Z,17.10
2018-11-26T03:04:59.615Z,16.60
2018-11-26T03:05:59.604Z,17.50
2018-11-26T03:06:59.595Z,17.30
2018-11-26T03:07:59.579Z,17.50
2018-11-26T03:08:59.568Z,16.70
2018-11-26T03:09:59.558Z,17.40
2018-11-26T03:10:59.554Z,17.40
2018-11-26T03:11:59.544Z,16.90
2018-11-26T03:12:59.528Z,16.20
2018-11-26T03:13:59.516Z,17.50
2018-11-26T03:14:59.512Z,17.10
2018-11-26T03:15:59.502Z,17.40
2018-11-26T03:16:59.495Z,17.70
2018-11-26T03:17:59.480Z,16.70
2018-11-26T03:18:59.464Z,16.60
2018-11-26T03:19:59.454Z,17.40
2018-11-26T03:20:59.446Z,16.90
2018-11-26T03:21:59.433Z,17.10
2018-11-26T03:22:59.428Z,17.50
2018-11-26T03:23:59.417Z,16.70
2018-11-26T03:24:59.417Z,16.70
2018-11-26T03:25:59.398Z,17.00
2018-11-26T03:26:59.381Z,17.70
2018-11-26T03:27:59.371Z,15.70
2018-11-26T03:28:59.366Z,16.80
2018-11-26T03:29:59.359Z,17.80
2018-11-26T03:30:59.340Z,17.50
2018-11-26T03:31:59.330Z,17.10
2018-11-26T03:32:59.326Z,16.20
2018-11-26T03:33:59.310Z,16.70
2018-11-26T03:34:59.304Z,16.10
2018-11-26T03:35:59.293Z,17.40
2018-11-26T03:36:59.280Z,16.20
2018-11-26T03:37:59.270Z,16.90
2018-11-26T03:38:59.262Z,16.00
2018-11-26T03:39:59.246Z,17.10
2018-11-26T03:40:59.235Z,16.90
2018-11-26T03:41:59.226Z,16.60
2018-11-26T03:42:59.220Z,16.90
2018-11-26T03:43:59.213Z,16.80
2018-11-26T03:44:59.193Z,17.10
2018-11-26T03:45:59.186Z,16.50
2018-11-26T03:46:59.178Z,16.60
2018-11-26T03:47:59.167Z,17.40
2018-11-26T03:48:59.158Z,17.10
2018-11-26T03:49:59.147Z,16.70
2018-11-26T03:50:59.131Z,17.40
2018-11-26T03:51:59.121Z,17.60
2018-11-26T03:52:59.114Z,17.00
2018-11-26T03:53:59.099Z,16.90
2018-11-26T03:54:59.096Z,16.70
2018-11-26T03:55:59.085Z,17.20
2018-11-26T03:56:59.072Z,17.60
2018-11-26T03:57:59.062Z,16.50
2018-11-26T03:58:59.049Z,15.90
2018-11-26T03:59:59.038Z,16.30
2018-11-26T04:00:59.034Z,17.00
2018-11-26T04:01:59.028Z,16.80
2018-11-26T04:02:59.007Z,17.10
2018-11-26T04:03:58.997Z,16.50
2018-11-26T04:04:58.985Z,17.30
2018-11-26T04:05:58.977Z,17.40
2018-11-26T04:06:58.971Z,16.90
2018-11-26T04:07:58.961Z,17.70
2018-11-26T04:08:58.949Z,17.20
2018-11-26T04:09:58.943Z,16.30
2018-11-26T04:10:58.924Z,16.50
2018-11-26T04:11:58.915Z,17.60
2018-11-26T04:12:58.904Z,17.40
2018-11-26T04:13:58.893Z,17.30
2018-11-26T04:14:58.887Z,16.90
2018-11-26T04:15:58.886Z,17.70
2018-11-26T04:16:58.862Z,16.40
2018-11-26T04:17:58.852Z,16.30
2018-11-26T04:18:58.846Z,17.30
2018-11-26T04:19:58.839Z,15.60
2018-11-26T04:20:58.832Z,17.30
2018-11-26T04:21:58.816Z,17.00
2018-11-26T04:22:58.802Z,16.90
2018-11-26T04:23:58.793Z,17.10
2018-11-26T04:24:58.780Z,17.40
2018-11-26T04:25:58.771Z,17.20
2018-11-26T04:26:58.766Z,17.20
2018-11-26T04:27:58.762Z,17.60
2018-11-26T04:28:58.744Z,16.60
2018-11-26T04:29:58.735Z,16.80
2018-11-26T04:30:58.719Z,17.30
2018-11-26T04:31:58.710Z,17.50
2018-11-26T04:32:58.703Z,17.50
2018-11-26T04:33:58.695Z,16.90
2018-11-26T04:34:58.682Z,17.40
2018-11-26T04:35:58.669Z,16.90
2018-11-26T04:36:58.870Z,17.70
2018-11-26T04:37:58.648Z,17.80
2018-11-26T04:38:58.643Z,16.80
2018-11-26T04:39:58.638Z,18.20
2018-11-26T04:40:58.622Z,17.10
2018-11-26T04:41:58.612Z,18.10
2018-11-26T04:42:58.597Z,17.40
2018-11-26T04:43:58.591Z,17.20
2018-11-26T04:44:58.576Z,17.20
2018-11-26T04:45:58.567Z,17.30
2018-11-26T04:46:58.561Z,17.20
2018-11-26T04:47:58.550Z,17.10
2018-11-26T04:48:58.536Z,17.10
2018-11-26T04:49:58.523Z,17.50
2018-11-26T04:50:58.520Z,17.20
2018-11-26T04:51:58.507Z,17.10
2018-11-26T04:52:58.498Z,17.30
2018-11-26T04:53:58.487Z,18.00
2018-11-26T04:54:58.473Z,18.50
2018-11-26T04:55:58.463Z,18.10
2018-11-26T04:56:58.450Z,17.70
2018-11-26T04:57:58.442Z,18.10
2018-11-26T04:58:58.434Z,18.00
2018-11-26T04:59:58.429Z,17.10
2018-11-26T05:00:58.413Z,16.70
2018-11-26T05:01:58.403Z,17.60
2018-11-26T05:02:58.389Z,17.90
2018-11-26T05:03:58.378Z,17.50
2018-11-26T05:04:58.372Z,17.10
2018-11-26T05:05:58.362Z,17.50
2018-11-26T05:06:58.349Z,17.70
2018-11-26T05:07:58.338Z,18.10
2018-11-26T05:08:58.331Z,18.30
2018-11-26T05:09:58.315Z,17.60
2018-11-26T05:10:58.310Z,17.50
2018-11-26T05:11:58.300Z,17.20
2018-11-26T05:12:58.287Z,18.00
2018-11-26T05:13:58.276Z,16.80
2018-11-26T05:14:58.262Z,17.90
2018-11-26T05:15:58.253Z,17.80
2018-11-26T05:16:58.241Z,17.40
2018-11-26T05:17:58.230Z,16.90
2018-11-26T05:18:58.228Z,17.10
2018-11-26T05:19:58.215Z,17.80
2018-11-26T05:20:58.201Z,17.40
2018-11-26T05:21:58.189Z,18.20
2018-11-26T05:22:58.183Z,18.00
2018-11-26T05:23:58.174Z,16.80
2018-11-26T05:24:58.160Z,17.50
2018-11-26T05:25:58.151Z,18.50
2018-11-26T05:26:58.136Z,17.30
2018-11-26T05:27:58.125Z,17.90
2018-11-26T05:28:58.117Z,18.10
2018-11-26T05:29:58.104Z,17.30
2018-11-26T05:30:58.098Z,17.30
2018-11-26T05:31:58.088Z,17.10
2018-11-26T05:32:58.078Z,17.00
2018-11-26T05:33:58.066Z,17.10
2018-11-26T05:34:58.052Z,17.20
2018-11-26T05:35:58.043Z,17.30
2018-11-26T05:36:58.036Z,17.30
2018-11-26T05:37:58.029Z,17.60
2018-11-26T05:38:58.012Z,18.00
2018-11-26T05:39:58.000Z,17.00
2018-11-26T05:40:57.991Z,17.20
2018-11-26T05:41:57.978Z,17.20
2018-11-26T05:42:57.971Z,16.40
2018-11-26T05:43:57.963Z,16.80
2018-11-26T05:44:57.951Z,17.80
2018-11-26T05:45:57.941Z,17.10
2018-11-26T05:46:57.925Z,16.60
2018-11-26T05:47:57.916Z,17.20
2018-11-26T05:48:57.906Z,17.10
2018-11-26T05:49:57.895Z,16.40
2018-11-26T05:50:57.889Z,17.40
2018-11-26T05:51:57.879Z,17.90
2018-11-26T05:52:57.863Z,16.60
2018-11-26T05:53:57.852Z,17.70
2018-11-26T05:54:57.847Z,16.80
2018-11-26T05:55:57.840Z,16.90
2018-11-26T05:56:57.824Z,17.50
2018-11-26T05:57:57.814Z,15.90
2018-11-26T05:58:57.800Z,17.50
2018-11-26T05:59:57.789Z,16.50
2018-11-26T06:00:57.779Z,16.30
2018-11-26T06:01:57.769Z,17.00
2018-11-26T06:02:57.785Z,17.70
2018-11-26T06:03:57.753Z,17.00
2018-11-26T06:04:57.740Z,17.40
2018-11-26T06:05:57.737Z,17.30
2018-11-26T06:06:57.715Z,15.90
2018-11-26T06:07:57.710Z,16.30
2018-11-26T06:08:57.699Z,16.60
2018-11-26T06:09:57.688Z,16.20
2018-11-26T06:10:57.673Z,17.00
2018-11-26T06:11:57.664Z,16.50
2018-11-26T06:12:57.651Z,16.80
2018-11-26T06:13:57.641Z,16.50
2018-11-26T06:14:57.636Z,16.50
2018-11-26T06:15:57.628Z,16.50
2018-11-26T06:16:57.614Z,17.10
2018-11-26T06:17:57.604Z,16.50
2018-11-26T06:18:57.589Z,16.50
2018-11-26T06:19:57.579Z,16.40
2018-11-26T06:20:57.566Z,17.10
2018-11-26T06:21:57.558Z,16.50
2018-11-26T06:22:57.550Z,16.60
2018-11-26T06:23:57.541Z,15.80
2018-11-26T06:24:57.524Z,16.30
2018-11-26T06:25:57.513Z,16.90
2018-11-26T06:26:57.509Z,16.80
2018-11-26T06:27:57.497Z,16.80
2018-11-26T06:28:57.489Z,17.30
2018-11-26T06:29:57.476Z,16.70
2018-11-26T06:30:57.461Z,16.70
2018-11-26T06:31:57.450Z,16.50
2018-11-26T06:32:57.439Z,16.20
2018-11-26T06:33:57.429Z,16.00
2018-11-26T06:34:57.424Z,16.40
2018-11-26T06:35:57.414Z,16.60
2018-11-26T06:36:57.404Z,16.30
2018-11-26T06:37:57.391Z,15.00
2018-11-26T06:38:57.376Z,16.30
2018-11-26T06:39:57.366Z,16.20
2018-11-26T06:40:57.359Z,17.40
2018-11-26T06:41:57.353Z,17.40
2018-11-26T06:42:57.335Z,16.20
2018-11-26T06:43:57.324Z,17.10
2018-11-26T06:44:57.313Z,16.60
2018-11-26T06:45:57.302Z,16.40
2018-11-26T06:46:57.299Z,16.40
2018-11-26T06:47:57.287Z,16.60
2018-11-26T06:48:57.275Z,15.60
2018-11-26T06:49:57.264Z,17.00
2018-11-26T06:50:57.250Z,15.70
2018-11-26T06:51:57.239Z,16.50
2018-11-26T06:52:57.228Z,16.70
2018-11-26T06:53:57.218Z,16.60
2018-11-26T06:54:57.211Z,16.60
2018-11-26T06:55:57.201Z,16.30
2018-11-26T06:56:57.185Z,16.10
2018-11-26T06:57:57.175Z,17.10
2018-11-26T06:58:57.168Z,16.50
2018-11-26T06:59:57.158Z,16.90
2018-11-26T07:00:57.151Z,16.60
2018-11-26T07:01:57.139Z,16.10
2018-11-26T07:02:57.122Z,16.10
2018-11-26T07:03:57.112Z,16.30
2018-11-26T07:04:57.101Z,17.00
2018-11-26T07:05:57.091Z,16.10
2018-11-26T07:06:57.084Z,15.60
2018-11-26T07:07:57.079Z,16.00
2018-11-26T07:08:57.062Z,16.30
2018-11-26T07:09:57.052Z,15.90
2018-11-26T07:10:57.037Z,16.00
2018-11-26T07:11:57.029Z,16.50
2018-11-26T07:12:57.020Z,16.30
2018-11-26T07:13:57.011Z,16.30
2018-11-26T07:14:56.998Z,16.70
2018-11-26T07:15:56.986Z,16.60
2018-11-26T07:16:56.976Z,16.20
2018-11-26T07:17:56.964Z,16.50
2018-11-26T07:18:56.958Z,15.60
2018-11-26T07:19:56.947Z,16.60
2018-11-26T07:20:56.936Z,16.10
2018-11-26T07:21:56.927Z,16.70
2018-11-26T07:22:56.911Z,16.20
2018-11-26T07:23:56.904Z,16.60
2018-11-26T07:24:56.889Z,16.30
2018-11-26T07:25:56.878Z,17.10
2018-11-26T07:26:56.873Z,16.00
2018-11-26T07:27:56.861Z,16.40
2018-11-26T07:28:56.846Z,15.00
2018-11-26T07:29:56.836Z,16.50
2018-11-26T07:30:56.830Z,16.20
2018-11-26T07:31:56.820Z,15.70
2018-11-26T07:32:56.810Z,15.50
2018-11-26T07:33:56.803Z,15.10
2018-11-26T07:34:56.784Z,16.70
2018-11-26T07:35:56.774Z,16.10
2018-11-26T07:36:56.761Z,16.00
2018-11-26T07:37:56.753Z,15.70
2018-11-26T07:38:56.746Z,15.70
2018-11-26T07:39:56.736Z,15.60
2018-11-26T07:40:56.724Z,15.60
2018-11-26T07:41:56.719Z,16.90
2018-11-26T07:42:56.699Z,16.60
2018-11-26T07:43:56.688Z,15.50
2018-11-26T07:44:56.681Z,15.70
2018-11-26T07:45:56.672Z,16.00
2018-11-26T07:46:56.656Z,16.20
2018-11-26T07:47:56.649Z,16.10
2018-11-26T07:48:56.635Z,15.90
2018-11-26T07:49:56.624Z,16.20
2018-11-26T07:50:56.622Z,15.70
2018-11-26T07:51:56.608Z,15.90
2018-11-26T07:52:56.600Z,15.80
2018-11-26T07:53:56.588Z,15.60
2018-11-26T07:54:56.572Z,15.60
2018-11-26T07:55:56.562Z,15.90
2018-11-26T07:56:56.551Z,16.50
2018-11-26T07:57:56.543Z,16.00
2018-11-26T07:58:56.534Z,15.80
2018-11-26T07:59:56.525Z,16.90
2018-11-26T08:00:56.508Z,16.20
2018-11-26T08:01:56.499Z,15.00
2018-11-26T08:02:56.499Z,15.90
2018-11-26T08:03:56.482Z,16.00
2018-11-26T08:04:56.474Z,15.60
2018-11-26T08:05:56.462Z,15.50
2018-11-26T08:06:56.446Z,15.30
2018-11-26T08:07:56.436Z,16.10
2018-11-26T08:08:56.425Z,15.90
2018-11-26T08:09:56.415Z,16.00
2018-11-26T08:10:56.409Z,16.60
2018-11-26T08:11:56.399Z,16.20
2018-11-26T08:12:56.389Z,15.70
2018-11-26T08:13:56.385Z,16.40
2018-11-26T08:14:56.365Z,16.10
2018-11-26T08:15:56.354Z,14.70
2018-11-26T08:16:56.347Z,15.20
2018-11-26T08:17:56.346Z,15.60
2018-11-26T08:18:56.323Z,16.20
2018-11-26T08:19:56.312Z,15.90
2018-11-26T08:20:56.301Z,14.70
2018-11-26T08:21:56.291Z,15.30
2018-11-26T08:22:56.285Z,15.50
2018-11-26T08:23:56.275Z,16.20
2018-11-26T08:24:56.264Z,15.60
2018-11-26T08:25:56.255Z,16.40
2018-11-26T08:26:56.244Z,15.70
2018-11-26T08:27:56.230Z,15.50
2018-11-26T08:28:56.220Z,16.20
2018-11-26T08:29:56.209Z,16.00
2018-11-26T08:30:56.205Z,16.40
2018-11-26T08:31:56.195Z,15.90
2018-11-26T08:32:56.179Z,15.70
2018-11-26T08:33:56.170Z,15.40
2018-11-26T08:34:56.164Z,15.60
2018-11-26T08:35:56.154Z,16.50
2018-11-26T08:36:56.141Z,16.60
2018-11-26T08:37:56.133Z,16.10
2018-11-26T08:38:56.118Z,15.90
2018-11-26T08:39:56.112Z,16.20
2018-11-26T08:40:56.097Z,15.40
2018-11-26T08:41:56.088Z,15.10
2018-11-26T08:42:56.082Z,16.20
2018-11-26T08:43:56.077Z,16.20
2018-11-26T08:44:56.061Z,16.40
2018-11-26T08:45:56.051Z,16.20
2018-11-26T08:46:56.037Z,16.70
2018-11-26T08:47:56.026Z,16.80
2018-11-26T08:48:56.019Z,16.10
2018-11-26T08:49:56.009Z,16.10
2018-11-26T08:50:55.994Z,16.30
2018-11-26T08:51:55.986Z,15.60
2018-11-26T08:52:55.973Z,15.70
2018-11-26T08:53:55.963Z,16.20
2018-11-26T08:54:55.957Z,16.00
2018-11-26T08:55:55.948Z,17.40
2018-11-26T08:56:55.936Z,16.90
2018-11-26T08:57:55.926Z,16.90
2018-11-26T08:58:55.912Z,16.20
2018-11-26T08:59:55.902Z,16.00
2018-11-26T09:00:55.891Z,17.60
2018-11-26T09:01:55.886Z,16.30
2018-11-26T09:02:55.876Z,16.70
2018-11-26T09:03:55.866Z,17.30
2018-11-26T09:04:55.849Z,16.40
2018-11-26T09:05:55.839Z,16.50
2018-11-26T09:06:55.836Z,16.30
2018-11-26T09:07:55.834Z,16.60
2018-11-26T09:08:55.813Z,16.90
2018-11-26T09:09:55.802Z,17.10
2018-11-26T09:10:55.788Z,16.20
2018-11-26T09:11:55.778Z,16.50
2018-11-26T09:12:55.767Z,16.00
2018-11-26T09:13:55.757Z,16.60
2018-11-26T09:14:55.751Z,15.50
2018-11-26T09:15:55.743Z,16.30
2018-11-26T09:16:55.732Z,16.50
2018-11-26T09:17:55.719Z,15.70
2018-11-26T09:18:55.706Z,16.30
2018-11-26T09:19:55.703Z,17.00
2018-11-26T09:20:55.689Z,16.10
2018-11-26T09:21:55.680Z,16.00
2018-11-26T09:22:55.666Z,17.10
2018-11-26T09:23:55.656Z,16.90
2018-11-26T09:24:55.646Z,16.80
2018-11-26T09:25:55.634Z,16.60
2018-11-26T09:26:55.630Z,16.80
2018-11-26T09:27:55.621Z,16.40
2018-11-26T09:28:55.611Z,15.20
2018-11-26T09:29:55.602Z,16.10
2018-11-26T09:30:55.584Z,16.30
2018-11-26T09:31:55.574Z,16.50
2018-11-26T09:32:55.565Z,16.60
2018-11-26T09:33:55.556Z,16.90
2018-11-26T09:34:55.550Z,15.70
2018-11-26T09:35:55.539Z,17.00
2018-11-26T09:36:55.524Z,16.10
2018-11-26T09:37:55.514Z,16.40
2018-11-26T09:38:55.510Z,16.00
2018-11-26T09:39:55.500Z,16.00
2018-11-26T09:40:55.491Z,16.00
2018-11-26T09:41:55.480Z,16.60
2018-11-26T09:42:55.468Z,16.20
2018-11-26T09:43:55.457Z,15.80
2018-11-26T09:44:55.447Z,16.20
2018-11-26T09:45:55.437Z,16.70
2018-11-26T09:46:55.435Z,16.10
2018-11-26T09:47:55.425Z,15.60
2018-11-26T09:48:55.418Z,15.90
2018-11-26T09:49:55.408Z,16.10
2018-11-26T09:50:55.390Z,15.70
2018-11-26T09:51:55.381Z,16.70
2018-11-26T09:52:55.895Z,16.10
2018-11-26T09:53:55.366Z,16.00
2018-11-26T09:54:55.353Z,16.50
2018-11-26T09:55:55.342Z,16.00
2018-11-26T09:56:55.333Z,16.10
2018-11-26T09:57:55.325Z,16.60
2018-11-26T09:58:55.320Z,16.80
2018-11-26T09:59:55.311Z,16.70
2018-11-26T10:00:55.300Z,15.60
2018-11-26T10:01:55.292Z,16.10
2018-11-26T10:02:55.277Z,15.70
2018-11-26T10:03:55.269Z,16.20
2018-11-26T10:04:55.258Z,16.70
2018-11-26T10:05:55.248Z,16.80
2018-11-26T10:06:55.244Z,16.40
2018-11-26T10:07:55.235Z,16.30
2018-11-26T10:08:55.221Z,16.50
2018-11-26T10:09:55.212Z,16.10
2018-11-26T10:10:55.207Z,16.70
2018-11-26T10:11:55.199Z,16.70
2018-11-26T10:12:55.189Z,16.10
2018-11-26T10:13:55.179Z,17.10
2018-11-26T10:14:55.166Z,16.00
2018-11-26T10:15:55.158Z,16.70
2018-11-26T10:16:55.146Z,16.10
2018-11-26T10:17:55.138Z,17.10
2018-11-26T10:18:55.133Z,16.20
2018-11-26T10:19:55.124Z,16.70
2018-11-26T10:20:55.114Z,16.30
2018-11-26T10:21:55.104Z,15.70
2018-11-26T10:22:55.094Z,16.80
2018-11-26T10:23:55.081Z,17.00
2018-11-26T10:24:55.076Z,16.80
2018-11-26T10:25:55.071Z,16.50
2018-11-26T10:26:55.058Z,16.60
2018-11-26T10:27:55.044Z,16.60
2018-11-26T10:28:55.035Z,16.50
2018-11-26T10:29:55.028Z,16.80
2018-11-26T10:30:55.022Z,17.60
2018-11-26T10:31:55.011Z,17.40
2018-11-26T10:32:55.002Z,16.90
2018-11-26T10:33:54.993Z,17.20
2018-11-26T10:34:54.978Z,17.40
2018-11-26T10:35:54.970Z,17.10
2018-11-26T10:36:54.960Z,17.50
2018-11-26T10:37:54.950Z,16.30
2018-11-26T10:38:54.948Z,17.50
2018-11-26T10:39:54.936Z,17.70
2018-11-26T10:40:54.922Z,17.40
2018-11-26T10:41:54.913Z,17.20
2018-11-26T10:42:54.909Z,17.30
2018-11-26T10:43:54.899Z,17.70
2018-11-26T10:44:54.888Z,17.50
2018-11-26T10:45:54.879Z,15.80
2018-11-26T10:46:54.865Z,17.70
2018-11-26T10:47:54.856Z,18.30
2018-11-26T10:48:54.848Z,17.10
2018-11-26T10:49:54.839Z,17.30
2018-11-26T10:50:54.834Z,17.50
2018-11-26T10:51:54.826Z,17.50
2018-11-26T10:52:54.813Z,17.30
2018-11-26T10:53:54.806Z,17.90
2018-11-26T10:54:54.789Z,17.30
2018-11-26T10:55:54.867Z,16.70
2018-11-26T10:56:54.774Z,17.00
2018-11-26T10:57:54.765Z,16.90
2018-11-26T10:58:54.750Z,16.90
2018-11-26T10:59:54.741Z,15.90
2018-11-26T11:00:54.730Z,17.50
2018-11-26T11:01:54.721Z,17.80
2018-11-26T11:02:54.715Z,17.90
2018-11-26T11:03:54.707Z,16.70
2018-11-26T11:04:54.696Z,17.40
2018-11-26T11:05:54.687Z,16.10
2018-11-26T11:06:55.882Z,18.00
2018-11-26T11:07:55.007Z,17.40
2018-11-26T11:08:54.656Z,16.30
2018-11-26T11:09:54.645Z,17.30
2018-11-26T11:10:54.641Z,16.70
2018-11-26T11:11:54.631Z,16.70
2018-11-26T11:12:54.615Z,16.80
2018-11-26T11:13:54.606Z,17.30
2018-11-26T11:14:54.602Z,17.20
2018-11-26T11:15:54.596Z,16.70
2018-11-26T11:16:54.581Z,16.60
2018-11-26T11:17:54.577Z,17.30
2018-11-26T11:18:54.561Z,16.60
2018-11-26T11:19:54.550Z,16.80
2018-11-26T11:20:54.769Z,17.50
2018-11-26T11:21:54.531Z,16.50
2018-11-26T11:22:54.525Z,16.50
2018-11-26T11:23:54.526Z,17.00
2018-11-26T11:24:54.507Z,17.30
2018-11-26T11:25:54.497Z,17.00
2018-11-26T11:26:54.484Z,17.20
2018-11-26T11:27:54.474Z,16.90
2018-11-26T11:28:54.470Z,16.70
2018-11-26T11:29:54.459Z,17.00
2018-11-26T11:30:54.664Z,17.40
2018-11-26T11:31:54.437Z,17.00
2018-11-26T11:32:54.427Z,16.00
2018-11-26T11:33:54.417Z,17.30
2018-11-26T11:34:54.414Z,17.50
2018-11-26T11:35:54.402Z,16.70
2018-11-26T11:36:54.394Z,17.70
2018-11-26T11:37:54.385Z,17.30
2018-11-26T11:38:54.370Z,17.70
2018-11-26T11:39:54.360Z,17.90
2018-11-26T11:40:54.352Z,18.10
2018-11-26T11:41:54.342Z,17.40
2018-11-26T11:42:54.336Z,17.10
2018-11-26T11:43:54.334Z,17.90
2018-11-26T11:44:54.313Z,18.10
2018-11-26T11:45:54.303Z,17.60
2018-11-26T11:46:54.298Z,17.20
2018-11-26T11:47:54.289Z,17.90
2018-11-26T11:48:54.281Z,18.20
2018-11-26T11:49:54.273Z,17.40
2018-11-26T11:50:54.256Z,17.60
2018-11-26T11:51:54.247Z,17.20
2018-11-26T11:52:54.238Z,17.50
2018-11-26T11:53:54.229Z,17.60
2018-11-26T11:54:54.223Z,18.10
2018-11-26T11:55:54.215Z,17.00
2018-11-26T11:56:54.202Z,18.50
2018-11-26T11:57:54.194Z,17.90
2018-11-26T11:58:54.180Z,18.00
2018-11-26T11:59:54.171Z,18.00
2018-11-26T12:00:54.165Z,18.50
2018-11-26T12:01:54.156Z,18.50
2018-11-26T12:02:54.143Z,17.90
2018-11-26T12:03:54.134Z,17.20
2018-11-26T12:04:54.123Z,17.20
2018-11-26T12:05:54.114Z,17.70
2018-11-26T12:06:54.109Z,17.90
2018-11-26T12:07:54.101Z,18.10
2018-11-26T12:08:54.090Z,17.40
2018-11-26T12:09:54.083Z,18.30
2018-11-26T12:10:54.072Z,17.80
2018-11-26T12:11:54.058Z,17.60
2018-11-26T12:12:54.047Z,17.70
2018-11-26T12:13:54.042Z,17.80
2018-11-26T12:14:54.039Z,17.90
2018-11-26T12:15:54.027Z,17.40
2018-11-26T12:16:54.009Z,18.00
2018-11-26T12:17:53.999Z,17.90
2018-11-26T12:18:53.994Z,18.10
2018-11-26T12:19:53.986Z,18.30
2018-11-26T12:20:53.976Z,18.10
2018-11-26T12:21:53.967Z,17.60
2018-11-26T12:22:53.952Z,18.00
2018-11-26T12:23:53.943Z,17.10
2018-11-26T12:24:53.932Z,17.80
2018-11-26T12:25:53.925Z,17.20
2018-11-26T12:26:53.918Z,17.50
2018-11-26T12:27:53.910Z,17.60
2018-11-26T12:28:53.900Z,17.70
2018-11-26T12:29:53.891Z,18.10
2018-11-26T12:30:53.877Z,17.60
2018-11-26T12:31:53.869Z,17.80
2018-11-26T12:32:53.862Z,18.20
2018-11-26T12:33:53.852Z,18.00
2018-11-26T12:34:53.839Z,17.80
2018-11-26T12:35:53.830Z,17.30
2018-11-26T12:36:57.822Z,17.10
2018-11-26T12:37:53.809Z,17.30
2018-11-26T12:38:53.808Z,18.40
2018-11-26T12:39:53.795Z,16.80
2018-11-26T12:40:53.785Z,16.70
2018-11-26T12:41:53.777Z,16.70
2018-11-26T12:42:53.762Z,18.40
2018-11-26T12:43:53.753Z,17.20
2018-11-26T12:44:53.746Z,17.00
2018-11-26T12:45:53.735Z,17.50
2018-11-26T12:46:53.731Z,17.20
2018-11-26T12:47:53.721Z,16.40
2018-11-26T12:48:53.706Z,16.30
2018-11-26T12:49:53.697Z,17.20
2018-11-26T12:50:53.693Z,17.10
2018-11-26T12:51:53.684Z,17.80